Time;durP1;ratioP1;P1;durP2;ratioP2;P2;SDS_P1;SDS_P2;PMS_P1;PMS_P2;Temp;Humidity;BMP_temperature;BMP_pressure;BME280_temperature;BME280_humidity;BME280_pressure;Samples;Min_cycle;Max_cycle;Signal;HPM_P1;HPM_P2
2020/12/28 00:01:10;;;;;;;1.30;1.20;;;8.90;37.10;;;;;;5051830;28;20669;-66
2020/12/28 00:03:35;;;;;;;1.77;1.10;;;8.90;36.90;;;;;;5051469;28;20200;-67
2020/12/28 00:06:01;;;;;;;0.83;0.83;;;8.90;36.70;;;;;;5051762;28;20413;-67
2020/12/28 00:08:26;;;;;;;1.00;1.00;;;9.00;38.20;;;;;;5051548;28;20191;-67
2020/12/28 00:10:51;;;;;;;4.10;1.40;;;9.10;36.80;;;;;;5051695;28;20211;-67
2020/12/28 00:13:17;;;;;;;1.20;1.10;;;8.90;37.00;;;;;;5051474;28;20211;-66
2020/12/28 00:15:42;;;;;;;2.20;0.90;;;8.90;36.60;;;;;;5051516;28;20164;-67
2020/12/28 00:18:08;;;;;;;1.10;1.00;;;8.80;37.10;;;;;;5051322;28;20164;-66
2020/12/28 00:20:34;;;;;;;1.10;1.00;;;8.80;37.20;;;;;;5051304;28;20176;-66
2020/12/28 00:22:59;;;;;;;0.97;0.97;;;8.90;37.00;;;;;;5051165;28;20763;-67
2020/12/28 00:25:26;;;;;;;1.50;1.40;;;9.00;37.40;;;;;;5051203;28;20171;-67
2020/12/28 00:27:52;;;;;;;0.90;0.90;;;9.00;37.90;;;;;;5050610;28;20168;-67
2020/12/28 00:30:18;;;;;;;0.80;0.80;;;8.80;36.80;;;;;;5050836;28;20830;-66
2020/12/28 00:32:44;;;;;;;0.97;0.97;;;8.60;37.80;;;;;;5051199;28;20406;-67
2020/12/28 00:35:11;;;;;;;0.90;0.90;;;8.60;37.70;;;;;;5050827;28;20433;-66
2020/12/28 00:37:38;;;;;;;0.90;0.90;;;8.60;37.80;;;;;;5050778;28;20403;-67
2020/12/28 00:40:05;;;;;;;1.33;1.00;;;8.70;38.00;;;;;;5051124;28;20455;-67
2020/12/28 00:42:31;;;;;;;1.23;1.13;;;8.60;38.00;;;;;;5049859;28;20418;-67
2020/12/28 00:44:57;;;;;;;1.20;1.10;;;8.70;39.20;;;;;;5049152;28;20833;-66
2020/12/28 00:47:23;;;;;;;1.30;1.20;;;8.80;39.50;;;;;;5048992;28;20415;-66
2020/12/28 00:49:48;;;;;;;1.00;1.00;;;8.90;38.80;;;;;;5048996;28;20290;-67
2020/12/28 00:52:14;;;;;;;0.83;0.83;;;8.80;38.50;;;;;;5049567;28;20702;-66
2020/12/28 00:54:39;;;;;;;1.10;1.00;;;8.90;38.40;;;;;;5049834;28;20207;-66
2020/12/28 00:57:05;;;;;;;0.97;0.93;;;8.80;37.70;;;;;;5049742;28;20643;-66
2020/12/28 00:59:30;;;;;;;0.97;0.93;;;8.70;38.30;;;;;;5050112;28;20209;-66
2020/12/28 01:01:57;;;;;;;1.10;1.10;;;8.70;38.20;;;;;;5050953;28;20514;-65
2020/12/28 01:04:23;;;;;;;0.90;0.90;;;8.70;38.40;;;;;;5050921;28;20537;-66
2020/12/28 01:06:48;;;;;;;1.10;1.07;;;8.50;38.60;;;;;;5050940;28;20433;-65
2020/12/28 01:09:14;;;;;;;1.17;1.00;;;8.40;39.10;;;;;;5050698;28;20211;-65
2020/12/28 01:11:40;;;;;;;1.47;1.40;;;8.20;40.70;;;;;;5051017;28;20229;-66
2020/12/28 01:14:05;;;;;;;0.90;0.90;;;8.30;40.80;;;;;;5050849;28;20274;-65
2020/12/28 01:16:31;;;;;;;0.80;0.80;;;8.30;40.90;;;;;;5050910;28;20207;-65
2020/12/28 01:18:56;;;;;;;1.10;1.00;;;8.30;41.20;;;;;;5050749;28;20523;-65
2020/12/28 01:21:22;;;;;;;1.40;1.30;;;8.20;41.00;;;;;;5051065;28;20186;-65
2020/12/28 01:23:48;;;;;;;1.30;1.20;;;8.10;41.00;;;;;;5050797;28;20208;-66
2020/12/28 01:26:15;;;;;;;1.23;1.13;;;8.10;41.00;;;;;;5050969;28;20418;-65
2020/12/28 01:28:41;;;;;;;1.00;1.00;;;8.30;41.10;;;;;;5050648;28;20671;-66
2020/12/28 01:31:06;;;;;;;1.00;1.00;;;8.50;40.80;;;;;;5050888;28;20405;-65
2020/12/28 01:33:32;;;;;;;1.30;1.20;;;8.30;40.20;;;;;;5050794;28;20188;-65
2020/12/28 01:35:57;;;;;;;1.43;1.33;;;8.20;41.10;;;;;;5050724;28;20194;-65
2020/12/28 01:38:23;;;;;;;1.10;1.00;;;8.10;41.70;;;;;;5050577;28;20197;-66
2020/12/28 01:40:49;;;;;;;1.40;1.30;;;8.10;41.40;;;;;;5053260;28;20179;-65
2020/12/28 01:43:16;;;;;;;1.97;1.10;;;8.00;41.50;;;;;;5054622;28;20245;-65
2020/12/28 01:45:41;;;;;;;0.93;0.93;;;8.10;41.70;;;;;;5054657;28;20175;-65
2020/12/28 01:48:07;;;;;;;1.23;1.13;;;8.30;41.10;;;;;;5054248;28;20450;-65
2020/12/28 01:50:33;;;;;;;0.90;0.90;;;8.10;41.70;;;;;;5054478;28;20172;-65
2020/12/28 01:52:58;;;;;;;1.40;1.30;;;8.20;42.20;;;;;;5054441;28;20960;-65
2020/12/28 01:55:24;;;;;;;1.10;1.10;;;8.30;42.00;;;;;;5054472;28;20180;-65
2020/12/28 01:57:50;;;;;;;1.00;1.00;;;8.40;41.30;;;;;;5054385;28;20178;-65
2020/12/28 02:00:15;;;;;;;0.97;0.97;;;8.50;41.30;;;;;;5054356;28;20230;-66
2020/12/28 02:02:41;;;;;;;1.30;1.20;;;8.30;42.20;;;;;;5054351;28;20164;-65
2020/12/28 02:05:06;;;;;;;1.20;1.20;;;8.60;41.40;;;;;;5054168;28;20223;-65
2020/12/28 02:07:37;;;;;;;2.13;1.37;;;8.60;41.40;;;;;;5054044;28;20267;-65
2020/12/28 02:10:07;;;;;;;1.00;1.00;;;8.40;41.70;;;;;;5054163;28;20571;-66
2020/12/28 02:12:33;;;;;;;1.53;1.20;;;8.40;41.50;;;;;;5052930;28;20417;-66
2020/12/28 02:14:59;;;;;;;0.97;0.97;;;8.40;42.80;;;;;;5054032;28;20441;-65
2020/12/28 02:17:25;;;;;;;1.03;1.03;;;8.20;42.30;;;;;;5053830;28;20440;-65
2020/12/28 02:19:51;;;;;;;1.70;1.60;;;8.10;44.10;;;;;;5053914;28;20172;-66
2020/12/28 02:22:16;;;;;;;1.40;1.30;;;8.00;44.70;;;;;;5053848;28;20445;-65
2020/12/28 02:24:42;;;;;;;1.53;1.43;;;8.30;45.00;;;;;;5053979;28;20192;-65
2020/12/28 02:27:07;;;;;;;1.43;1.33;;;8.10;44.80;;;;;;5053745;28;20665;-65
2020/12/28 02:29:33;;;;;;;2.07;1.30;;;7.90;45.80;;;;;;5053802;28;20200;-65
2020/12/28 02:31:59;;;;;;;1.20;1.20;;;7.90;47.10;;;;;;5053767;28;20180;-65
2020/12/28 02:34:25;;;;;;;1.70;1.60;;;7.90;45.90;;;;;;5053664;28;20589;-65
2020/12/28 02:36:51;;;;;;;1.57;1.47;;;7.90;46.40;;;;;;5054153;28;20410;-65
2020/12/28 02:39:16;;;;;;;1.50;1.40;;;7.80;47.70;;;;;;5053567;28;20503;-65
2020/12/28 02:41:42;;;;;;;1.33;1.30;;;7.70;47.10;;;;;;5053655;28;20179;-65
2020/12/28 02:44:07;;;;;;;1.50;1.40;;;7.70;47.30;;;;;;5053506;28;20195;-65
2020/12/28 02:46:33;;;;;;;1.17;1.17;;;7.80;48.10;;;;;;5053649;28;20714;-65
2020/12/28 02:48:59;;;;;;;1.50;1.40;;;7.60;47.80;;;;;;5053217;28;20699;-65
2020/12/28 02:51:24;;;;;;;1.50;1.50;;;7.70;47.90;;;;;;5052806;28;20171;-65
2020/12/28 02:53:50;;;;;;;1.20;1.20;;;7.60;47.90;;;;;;5053279;28;20621;-65
2020/12/28 02:56:15;;;;;;;1.23;1.20;;;7.40;48.10;;;;;;5053395;28;20600;-65
2020/12/28 02:58:40;;;;;;;1.20;1.20;;;7.50;49.10;;;;;;5053078;28;20183;-66
2020/12/28 03:01:06;;;;;;;1.30;1.23;;;7.50;49.10;;;;;;5053229;28;20552;-65
2020/12/28 03:03:31;;;;;;;1.70;1.60;;;7.40;49.60;;;;;;5053091;28;20282;-65
2020/12/28 03:05:57;;;;;;;1.57;1.47;;;7.30;49.60;;;;;;5053200;28;20186;-65
2020/12/28 03:08:22;;;;;;;1.40;1.37;;;7.20;50.10;;;;;;5052908;28;20201;-65
2020/12/28 03:10:48;;;;;;;1.27;1.13;;;7.30;50.10;;;;;;5053212;28;20711;-65
2020/12/28 03:13:13;;;;;;;1.20;1.20;;;7.30;49.20;;;;;;5053086;28;20295;-65
2020/12/28 03:15:39;;;;;;;1.43;1.33;;;7.30;50.10;;;;;;5053026;28;20533;-65
2020/12/28 03:18:04;;;;;;;1.57;1.47;;;7.50;49.80;;;;;;5052735;28;20255;-65
2020/12/28 03:20:30;;;;;;;1.30;1.30;;;7.70;48.80;;;;;;5052914;28;20179;-65
2020/12/28 03:22:55;;;;;;;1.50;1.40;;;7.90;48.90;;;;;;5052711;28;20201;-66
2020/12/28 03:25:21;;;;;;;1.40;1.37;;;7.90;48.30;;;;;;5052878;28;20749;-66
2020/12/28 03:27:46;;;;;;;2.83;1.27;;;7.60;49.00;;;;;;5052559;28;20545;-65
2020/12/28 03:30:12;;;;;;;1.30;1.20;;;7.60;49.20;;;;;;5052679;28;20172;-66
2020/12/28 03:32:37;;;;;;;1.47;1.40;;;7.70;49.50;;;;;;5052607;28;20183;-66
2020/12/28 03:35:03;;;;;;;1.60;1.50;;;7.70;49.30;;;;;;5052622;28;20195;-66
2020/12/28 03:37:29;;;;;;;1.27;1.27;;;7.70;49.10;;;;;;5052689;28;20176;-65
2020/12/28 03:39:54;;;;;;;1.43;1.33;;;7.50;49.40;;;;;;5051468;28;20179;-65
2020/12/28 03:42:20;;;;;;;1.00;1.00;;;7.60;50.00;;;;;;5052562;28;20175;-65
2020/12/28 03:44:45;;;;;;;1.20;1.20;;;7.60;49.60;;;;;;5052315;28;20207;-65
2020/12/28 03:47:11;;;;;;;1.30;1.30;;;7.60;49.70;;;;;;5052173;28;20231;-65
2020/12/28 03:49:36;;;;;;;1.37;1.30;;;7.60;49.80;;;;;;5052507;28;20192;-65
2020/12/28 03:52:02;;;;;;;1.10;1.10;;;7.70;49.40;;;;;;5052383;28;20175;-65
2020/12/28 03:54:28;;;;;;;1.40;1.30;;;7.40;50.20;;;;;;5052305;28;20188;-65
2020/12/28 03:56:53;;;;;;;1.10;1.10;;;7.40;50.20;;;;;;5052200;28;20909;-65
2020/12/28 03:59:19;;;;;;;1.00;1.00;;;7.40;50.20;;;;;;5051994;28;20184;-65
2020/12/28 04:01:44;;;;;;;1.00;1.00;;;7.50;49.70;;;;;;5052057;28;20261;-65
2020/12/28 04:04:10;;;;;;;1.00;1.00;;;7.50;49.70;;;;;;5051946;28;20195;-65
2020/12/28 04:06:35;;;;;;;1.03;1.03;;;7.50;49.10;;;;;;5052025;28;20184;-65
2020/12/28 04:09:00;;;;;;;1.10;1.10;;;7.60;49.00;;;;;;5051676;28;20196;-66
2020/12/28 04:11:26;;;;;;;1.27;0.90;;;7.80;48.50;;;;;;5051952;28;20643;-65
2020/12/28 04:13:52;;;;;;;1.23;1.13;;;7.80;47.90;;;;;;5051743;28;20302;-66
2020/12/28 04:16:17;;;;;;;1.13;1.13;;;7.70;48.40;;;;;;5051845;28;20254;-66
2020/12/28 04:18:43;;;;;;;1.20;1.10;;;7.40;48.90;;;;;;5051611;28;20182;-66
2020/12/28 04:21:08;;;;;;;0.90;0.90;;;7.30;49.70;;;;;;5051763;28;20179;-66
2020/12/28 04:23:34;;;;;;;0.73;0.73;;;7.40;50.20;;;;;;5051552;28;20215;-65
2020/12/28 04:26:06;;;;;;;1.10;1.10;;;7.60;48.70;;;;;;5108829;27;20521;-65
2020/12/28 04:28:31;;;;;;;0.80;0.80;;;7.40;49.30;;;;;;5108535;28;20416;-65
2020/12/28 04:30:57;;;;;;;0.90;0.90;;;7.50;49.10;;;;;;5108613;28;20184;-66
2020/12/28 04:33:23;;;;;;;1.50;1.50;;;7.60;49.30;;;;;;5108678;28;20431;-65
2020/12/28 04:35:49;;;;;;;1.00;1.00;;;7.70;47.80;;;;;;5108676;28;20547;-66
2020/12/28 04:38:14;;;;;;;6.43;5.63;;;7.80;48.50;;;;;;5108473;28;20487;-65
2020/12/28 04:40:40;;;;;;;1.30;1.30;;;8.00;46.80;;;;;;5108577;28;20658;-65
2020/12/28 04:43:13;;;;;;;2.40;1.70;;;7.70;48.40;;;;;;5108311;28;20583;-66
2020/12/28 04:45:39;;;;;;;1.07;1.07;;;7.80;47.20;;;;;;5108456;28;20672;-66
2020/12/28 04:48:07;;;;;;;1.40;1.30;;;7.90;46.90;;;;;;5108310;28;20404;-65
2020/12/28 04:50:34;;;;;;;1.33;1.20;;;7.90;46.80;;;;;;5108497;28;20430;-66
2020/12/28 04:52:59;;;;;;;1.10;1.00;;;7.50;46.90;;;;;;5108394;28;20816;-65
2020/12/28 04:55:25;;;;;;;1.00;1.00;;;7.40;47.80;;;;;;5108390;28;20503;-65
2020/12/28 04:57:50;;;;;;;1.20;1.10;;;7.40;47.30;;;;;;5108197;28;20652;-66
2020/12/28 05:00:17;;;;;;;4.57;1.20;;;7.20;48.80;;;;;;5108410;28;20185;-65
2020/12/28 05:02:42;;;;;;;1.20;1.00;;;7.20;47.70;;;;;;5108505;28;20704;-65
2020/12/28 05:05:09;;;;;;;1.13;1.00;;;7.10;49.10;;;;;;5108217;28;20560;-66
2020/12/28 05:07:34;;;;;;;1.17;1.10;;;7.30;48.30;;;;;;5107985;28;20278;-66
2020/12/28 05:10:00;;;;;;;1.30;0.97;;;7.40;47.50;;;;;;5108049;28;20906;-66
2020/12/28 05:12:26;;;;;;;1.27;1.17;;;7.40;47.70;;;;;;5107984;28;20853;-65
2020/12/28 05:15:06;;;;;;;1.20;1.07;;;7.50;47.20;;;;;;5107761;28;20280;-66
2020/12/28 05:17:32;;;;;;;1.00;1.00;;;7.60;46.50;;;;;;5107721;28;20184;-65
2020/12/28 05:20:03;;;;;;;0.90;0.90;;;7.40;47.60;;;;;;5107841;28;20501;-65
2020/12/28 05:22:29;;;;;;;1.30;1.30;;;7.70;46.80;;;;;;5106569;28;20268;-66
2020/12/28 05:24:58;;;;;;;1.33;1.23;;;7.80;46.10;;;;;;5107352;28;20473;-65
2020/12/28 05:27:24;;;;;;;1.20;1.20;;;8.10;45.40;;;;;;5106583;28;20416;-66
2020/12/28 05:29:50;;;;;;;2.30;1.50;;;8.10;44.80;;;;;;5106467;28;20419;-66
2020/12/28 05:32:17;;;;;;;1.57;0.90;;;8.00;44.50;;;;;;5107154;28;20454;-65
2020/12/28 05:34:44;;;;;;;1.00;1.00;;;7.70;45.00;;;;;;5105802;28;20434;-66
2020/12/28 05:37:12;;;;;;;1.30;1.20;;;7.50;46.10;;;;;;5094940;28;20781;-66
2020/12/28 05:39:39;;;;;;;1.17;1.07;;;7.60;46.20;;;;;;5093461;28;20802;-66
2020/12/28 05:42:11;;;;;;;0.87;0.87;;;7.80;45.80;;;;;;5093302;28;20437;-66
2020/12/28 05:44:47;;;;;;;1.27;1.13;;;7.60;46.10;;;;;;5093584;28;20492;-66
2020/12/28 05:47:14;;;;;;;1.20;1.20;;;7.40;47.40;;;;;;5093646;28;20894;-66
2020/12/28 05:49:41;;;;;;;1.30;1.20;;;7.40;47.60;;;;;;5093685;28;20435;-66
2020/12/28 05:52:09;;;;;;;1.27;1.17;;;7.60;47.20;;;;;;5093583;28;20416;-66
2020/12/28 05:54:36;;;;;;;0.90;0.90;;;7.60;46.70;;;;;;5093384;28;20432;-66
2020/12/28 05:57:02;;;;;;;1.40;1.30;;;7.70;46.50;;;;;;5093074;28;20774;-65
2020/12/28 05:59:29;;;;;;;1.10;1.00;;;7.80;46.80;;;;;;5091811;28;20424;-65
2020/12/28 06:01:57;;;;;;;1.20;1.10;;;7.90;46.30;;;;;;5093418;28;20421;-65
2020/12/28 06:04:22;;;;;;;1.07;1.07;;;7.70;46.10;;;;;;5093387;28;20463;-66
2020/12/28 06:06:48;;;;;;;1.67;1.50;;;7.60;46.80;;;;;;5093517;28;20404;-66
2020/12/28 06:09:18;;;;;;;1.40;1.13;;;7.70;47.70;;;;;;5093447;28;20201;-66
2020/12/28 06:11:45;;;;;;;1.13;1.13;;;7.60;47.00;;;;;;5093599;28;20173;-66
2020/12/28 06:14:15;;;;;;;1.67;0.80;;;7.70;47.30;;;;;;5093312;28;20440;-66
2020/12/28 06:16:41;;;;;;;0.90;0.90;;;7.70;47.30;;;;;;5093375;28;20496;-66
2020/12/28 06:19:06;;;;;;;1.10;1.07;;;7.40;48.00;;;;;;5093034;28;20495;-66
2020/12/28 06:21:36;;;;;;;1.00;0.97;;;7.60;48.30;;;;;;5093180;28;20189;-66
2020/12/28 06:24:03;;;;;;;0.93;0.93;;;7.60;48.90;;;;;;5092827;28;20218;-66
2020/12/28 06:26:28;;;;;;;0.80;0.80;;;7.70;47.50;;;;;;5093025;28;20409;-66
2020/12/28 06:29:09;;;;;;;0.90;0.90;;;7.40;48.10;;;;;;5092823;28;20462;-66
2020/12/28 06:31:34;;;;;;;1.00;0.80;;;7.50;49.00;;;;;;5092901;28;20266;-65
2020/12/28 06:34:00;;;;;;;1.20;1.20;;;7.50;48.60;;;;;;5092681;28;20428;-65
2020/12/28 06:36:26;;;;;;;1.00;1.00;;;7.40;48.80;;;;;;5092507;28;20441;-65
2020/12/28 06:38:59;;;;;;;1.03;1.00;;;7.60;48.90;;;;;;5092247;28;20174;-66
2020/12/28 06:41:30;;;;;;;0.90;0.90;;;7.70;47.80;;;;;;5092360;28;20534;-66
2020/12/28 06:43:59;;;;;;;0.87;0.87;;;7.60;48.00;;;;;;5092468;28;20446;-65
2020/12/28 06:46:25;;;;;;;1.30;1.20;;;7.80;48.90;;;;;;5092513;28;20554;-66
2020/12/28 06:48:50;;;;;;;1.03;0.93;;;7.50;48.50;;;;;;5091387;28;20408;-66
2020/12/28 06:51:16;;;;;;;0.90;0.90;;;7.60;49.10;;;;;;5092472;28;20423;-66
2020/12/28 06:53:42;;;;;;;1.47;1.37;;;7.60;48.20;;;;;;5092437;28;20226;-65
2020/12/28 06:56:09;;;;;;;1.30;1.00;;;7.90;48.80;;;;;;5092305;28;20436;-65
2020/12/28 06:58:35;;;;;;;1.30;1.20;;;7.90;47.40;;;;;;5092136;28;20408;-66
2020/12/28 07:01:05;;;;;;;2.33;1.40;;;7.50;48.30;;;;;;5092181;28;20409;-66
2020/12/28 07:03:31;;;;;;;1.00;1.00;;;7.60;50.40;;;;;;5092103;28;20424;-66
2020/12/28 07:06:04;;;;;;;1.60;1.50;;;7.60;49.40;;;;;;5092000;28;20543;-66
2020/12/28 07:08:32;;;;;;;1.70;1.30;;;7.70;48.80;;;;;;5091885;28;20431;-66
2020/12/28 07:11:02;;;;;;;1.27;1.23;;;7.70;49.20;;;;;;5092023;28;20408;-66
2020/12/28 07:13:28;;;;;;;1.10;1.00;;;7.40;49.70;;;;;;5091861;28;20441;-66
2020/12/28 07:16:07;;;;;;;1.30;1.20;;;7.50;50.30;;;;;;5091945;28;20488;-67
2020/12/28 07:18:33;;;;;;;3.13;1.23;;;7.50;49.40;;;;;;5091835;28;20400;-66
2020/12/28 07:21:00;;;;;;;1.07;1.00;;;7.40;50.20;;;;;;5091877;28;20495;-66
2020/12/28 07:23:28;;;;;;;2.00;1.27;;;7.40;50.70;;;;;;5091722;28;20786;-66
2020/12/28 07:26:12;;;;;;;1.60;1.50;;;7.60;49.70;;;;;;5091483;28;20471;-66
2020/12/28 07:28:39;;;;;;;1.20;1.10;;;7.30;50.10;;;;;;5091621;28;20462;-66
2020/12/28 07:31:06;;;;;;;1.90;1.20;;;7.50;50.30;;;;;;5091694;28;20432;-66
2020/12/28 07:33:33;;;;;;;1.47;1.07;;;7.30;50.10;;;;;;5091555;28;20428;-66
2020/12/28 07:36:20;;;;;;;1.43;1.33;;;7.30;49.60;;;;;;5091564;28;20817;-66
2020/12/28 07:38:47;;;;;;;1.60;1.40;;;7.60;50.10;;;;;;5091307;28;20436;-66
2020/12/28 07:41:17;;;;;;;1.00;1.00;;;7.30;49.60;;;;;;5091553;28;20408;-66
2020/12/28 07:43:53;;;;;;;1.00;1.00;;;7.30;50.10;;;;;;5091430;28;20777;-66
2020/12/28 07:46:32;;;;;;;1.10;1.10;;;7.40;50.60;;;;;;5091575;28;20426;-66
2020/12/28 07:49:26;;;;;;;1.50;1.40;;;7.00;51.50;;;;;;5091239;28;20403;-66
2020/12/28 07:52:10;;;;;;;1.20;1.13;;;7.20;50.50;;;;;;5091376;28;20428;-66
2020/12/28 07:55:08;;;;;;;1.30;1.20;;;7.20;51.20;;;;;;5091159;28;20432;-66
2020/12/28 07:58:12;;;;;;;2.20;1.60;;;7.00;50.90;;;;;;5076621;28;20417;-66
2020/12/28 08:00:43;;;;;;;2.13;1.80;;;7.00;52.00;;;;;;5091074;28;20411;-66
2020/12/28 08:03:25;;;;;;;1.37;1.27;;;6.90;52.80;;;;;;5091237;28;21175;-66
2020/12/28 08:05:54;;;;;;;1.53;1.43;;;6.70;52.00;;;;;;5091199;28;20451;-66
2020/12/28 08:08:21;;;;;;;1.70;1.60;;;6.80;52.50;;;;;;5090980;28;20767;-66
2020/12/28 08:11:01;;;;;;;1.27;1.10;;;6.90;53.20;;;;;;5091215;28;20495;-66
2020/12/28 08:13:28;;;;;;;1.73;1.63;;;6.80;52.70;;;;;;5091149;28;20431;-66
2020/12/28 08:16:07;;;;;;;1.37;1.37;;;7.10;52.40;;;;;;5091361;28;20970;-66
2020/12/28 08:18:53;;;;;;;1.50;1.40;;;7.30;51.00;;;;;;5090949;28;20416;-66
2020/12/28 08:21:20;;;;;;;1.73;1.60;;;7.10;50.60;;;;;;5091105;28;20416;-66
2020/12/28 08:23:52;;;;;;;2.00;1.67;;;7.20;52.30;;;;;;5090692;28;20433;-66
2020/12/28 08:26:22;;;;;;;1.70;1.70;;;7.10;51.70;;;;;;5091012;28;20423;-66
2020/12/28 08:28:50;;;;;;;2.00;1.80;;;7.30;51.70;;;;;;5091021;28;20971;-66
2020/12/28 08:31:16;;;;;;;1.20;1.20;;;7.40;50.10;;;;;;5090874;28;20409;-66
2020/12/28 08:33:42;;;;;;;1.67;1.60;;;7.30;50.10;;;;;;5090787;28;20960;-66
2020/12/28 08:36:07;;;;;;;2.60;1.47;;;7.50;50.30;;;;;;5090796;28;20447;-66
2020/12/28 08:38:33;;;;;;;1.90;1.80;;;7.50;49.50;;;;;;5091122;28;20190;-66
2020/12/28 08:40:59;;;;;;;1.63;1.50;;;7.40;50.20;;;;;;5090802;28;20167;-66
2020/12/28 08:43:25;;;;;;;1.70;1.37;;;7.50;49.50;;;;;;5090634;28;20448;-66
2020/12/28 08:46:02;;;;;;;1.40;1.30;;;7.40;50.20;;;;;;5090666;28;20451;-66
2020/12/28 08:48:27;;;;;;;2.50;1.67;;;7.60;48.80;;;;;;5090586;28;20169;-66
2020/12/28 08:50:53;;;;;;;2.87;1.03;;;7.40;49.10;;;;;;5090703;28;20409;-67
2020/12/28 08:53:22;;;;;;;2.07;1.97;;;7.60;49.20;;;;;;5090562;28;20186;-66
2020/12/28 08:56:01;;;;;;;2.27;1.47;;;7.50;49.70;;;;;;5090478;28;20518;-67
2020/12/28 08:58:27;;;;;;;1.30;1.20;;;7.70;50.00;;;;;;5090494;28;20409;-67
2020/12/28 09:00:52;;;;;;;2.40;1.40;;;7.80;48.70;;;;;;5091029;28;20414;-67
2020/12/28 09:03:18;;;;;;;1.40;1.30;;;7.80;48.80;;;;;;5090538;28;20186;-67
2020/12/28 09:05:43;;;;;;;1.50;1.40;;;7.90;49.20;;;;;;5075365;28;20213;-67
2020/12/28 09:08:09;;;;;;;2.27;2.10;;;7.70;49.30;;;;;;5077580;28;20228;-68
2020/12/28 09:10:34;;;;;;;1.63;1.50;;;7.60;49.40;;;;;;5090637;28;20198;-68
2020/12/28 09:13:00;;;;;;;1.47;1.37;;;7.60;50.40;;;;;;5094263;28;20250;-67
2020/12/28 09:15:25;;;;;;;1.40;1.37;;;7.50;50.80;;;;;;5093094;28;20269;-67
2020/12/28 09:17:51;;;;;;;1.57;1.47;;;7.30;51.40;;;;;;5094166;28;20178;-67
2020/12/28 09:20:16;;;;;;;3.80;1.60;;;7.30;51.10;;;;;;5094264;28;20249;-66
2020/12/28 09:22:42;;;;;;;1.70;1.60;;;7.30;51.30;;;;;;5093012;28;20182;-67
2020/12/28 09:25:08;;;;;;;3.13;2.67;;;7.20;51.10;;;;;;5094043;28;20823;-67
2020/12/28 09:27:33;;;;;;;2.93;2.67;;;7.10;52.20;;;;;;5094269;28;20180;-67
2020/12/28 09:29:59;;;;;;;2.90;2.70;;;7.30;52.10;;;;;;5094085;28;20654;-66
2020/12/28 09:32:24;;;;;;;1.20;1.10;;;7.20;50.40;;;;;;5094192;28;20178;-67
2020/12/28 09:34:51;;;;;;;1.70;1.60;;;7.20;51.10;;;;;;5094031;28;20196;-67
2020/12/28 09:37:17;;;;;;;1.13;1.13;;;7.30;50.90;;;;;;5093691;28;20595;-68
2020/12/28 09:39:43;;;;;;;1.50;1.40;;;7.20;50.40;;;;;;5089378;28;20448;-68
2020/12/28 09:42:08;;;;;;;1.40;1.30;;;7.50;51.00;;;;;;5093280;28;20253;-67
2020/12/28 09:44:34;;;;;;;1.50;1.40;;;7.50;49.70;;;;;;5093149;28;20209;-68
2020/12/28 09:46:59;;;;;;;1.40;1.30;;;7.30;51.00;;;;;;5093239;28;20188;-68
2020/12/28 09:49:25;;;;;;;1.80;1.50;;;7.30;50.90;;;;;;5092717;28;20185;-67
2020/12/28 09:51:54;;;;;;;1.57;1.47;;;7.10;51.00;;;;;;5093309;28;20310;-67
2020/12/28 09:54:23;;;;;;;3.13;1.87;;;7.20;52.20;;;;;;5093270;28;20266;-66
2020/12/28 09:56:48;;;;;;;1.40;1.30;;;7.50;51.20;;;;;;5091288;28;20415;-66
2020/12/28 09:59:15;;;;;;;1.60;1.50;;;7.40;50.10;;;;;;5092713;28;20935;-66
2020/12/28 10:01:45;;;;;;;2.17;1.70;;;7.30;51.50;;;;;;5093195;28;20193;-66
2020/12/28 10:04:11;;;;;;;1.80;1.70;;;7.50;50.70;;;;;;5092746;28;20463;-66
2020/12/28 10:06:37;;;;;;;4.20;1.77;;;7.60;50.40;;;;;;5092912;28;20468;-67
2020/12/28 10:09:08;;;;;;;1.77;1.67;;;7.70;49.80;;;;;;5092880;28;20407;-67
2020/12/28 10:11:34;;;;;;;1.70;1.60;;;7.70;49.90;;;;;;5092722;28;20408;-66
2020/12/28 10:13:59;;;;;;;1.90;1.80;;;7.50;49.90;;;;;;5092897;28;20432;-67
2020/12/28 10:16:27;;;;;;;2.27;2.10;;;7.10;52.00;;;;;;5092880;28;20174;-67
2020/12/28 10:18:53;;;;;;;2.30;2.20;;;7.00;52.10;;;;;;5092264;28;20173;-66
2020/12/28 10:21:20;;;;;;;3.10;2.80;;;7.10;52.30;;;;;;5092695;28;20431;-66
2020/12/28 10:23:46;;;;;;;2.67;2.47;;;7.20;53.20;;;;;;5092438;28;20427;-66
2020/12/28 10:26:17;;;;;;;6.00;3.13;;;7.40;54.00;;;;;;5092526;28;20452;-68
2020/12/28 10:28:43;;;;;;;4.77;3.30;;;9.90;82.40;;;;;;5092544;28;20223;-68
2020/12/28 10:31:10;;;;;;;3.33;2.80;;;11.50;59.10;;;;;;5092554;28;20907;-68
2020/12/28 10:33:37;;;;;;;2.73;2.60;;;11.90;43.50;;;;;;5092098;28;20421;-68
2020/12/28 10:36:03;;;;;;;3.63;2.77;;;11.70;38.10;;;;;;5093596;28;20416;-68
2020/12/28 10:38:28;;;;;;;6.13;3.00;;;11.50;52.10;;;;;;5112955;28;20407;-68
2020/12/28 10:40:54;;;;;;;2.60;2.40;;;12.70;44.70;;;;;;5112723;28;20683;-66
2020/12/28 10:43:19;;;;;;;2.83;2.27;;;10.60;36.20;;;;;;5112755;28;20194;-66
2020/12/28 10:45:45;;;;;;;2.67;2.47;;;9.40;41.20;;;;;;5112726;28;20262;-67
2020/12/28 10:48:10;;;;;;;3.13;2.87;;;8.50;44.20;;;;;;5112222;28;20612;-66
2020/12/28 10:50:36;;;;;;;2.63;2.43;;;8.30;45.10;;;;;;5112544;28;20250;-66
2020/12/28 10:53:01;;;;;;;2.40;2.20;;;8.10;45.60;;;;;;5083167;28;20258;-66
2020/12/28 10:55:27;;;;;;;3.40;3.17;;;8.00;45.90;;;;;;5082601;28;20178;-66
2020/12/28 10:57:52;;;;;;;3.03;2.83;;;7.80;47.10;;;;;;5091913;28;20170;-66
2020/12/28 11:00:18;;;;;;;3.20;3.00;;;7.70;46.80;;;;;;5092191;28;20197;-66
2020/12/28 11:02:43;;;;;;;4.00;3.63;;;8.10;46.30;;;;;;5091726;28;20652;-67
2020/12/28 11:05:09;;;;;;;3.67;3.47;;;8.00;45.00;;;;;;5091631;28;20198;-66
2020/12/28 11:07:34;;;;;;;3.10;2.80;;;7.70;46.40;;;;;;5090554;28;20182;-66
2020/12/28 11:09:59;;;;;;;3.43;3.13;;;7.60;47.20;;;;;;5092108;28;20166;-66
2020/12/28 11:12:25;;;;;;;4.00;3.70;;;7.50;47.40;;;;;;5092009;28;20171;-66
2020/12/28 11:14:50;;;;;;;3.33;3.13;;;7.40;48.90;;;;;;5091936;28;20198;-67
2020/12/28 11:17:16;;;;;;;2.63;2.43;;;7.90;49.00;;;;;;5091789;28;20219;-66
2020/12/28 11:19:41;;;;;;;2.70;2.57;;;7.60;47.40;;;;;;5091796;28;20237;-66
2020/12/28 11:22:07;;;;;;;3.10;2.90;;;7.80;48.30;;;;;;5091498;28;20581;-67
2020/12/28 11:24:32;;;;;;;2.83;2.63;;;7.80;48.60;;;;;;5091556;28;20297;-67
2020/12/28 11:26:58;;;;;;;3.00;2.80;;;7.40;48.00;;;;;;5086376;28;20207;-68
2020/12/28 11:29:24;;;;;;;2.80;2.60;;;7.40;49.20;;;;;;5088379;28;20526;-68
2020/12/28 11:31:49;;;;;;;3.47;3.17;;;7.30;48.90;;;;;;5089911;28;20264;-67
2020/12/28 11:34:15;;;;;;;3.13;2.93;;;7.50;48.40;;;;;;5090361;28;20197;-67
2020/12/28 11:36:43;;;;;;;2.23;2.13;;;7.60;48.40;;;;;;5091472;28;20185;-67
2020/12/28 11:39:14;;;;;;;3.97;3.57;;;7.80;47.40;;;;;;5091025;28;20839;-66
2020/12/28 11:41:39;;;;;;;3.30;3.10;;;7.90;46.70;;;;;;5090950;28;20407;-68
2020/12/28 11:44:09;;;;;;;3.13;2.93;;;7.70;47.40;;;;;;5091163;28;20448;-67
2020/12/28 11:46:35;;;;;;;2.63;2.43;;;7.80;47.10;;;;;;5090985;28;20162;-67
2020/12/28 11:49:00;;;;;;;3.50;3.30;;;7.80;46.50;;;;;;5090411;28;20426;-68
2020/12/28 11:51:26;;;;;;;3.40;3.20;;;7.70;46.50;;;;;;5091209;28;20178;-68
2020/12/28 11:53:51;;;;;;;3.40;3.10;;;7.60;46.40;;;;;;5091174;28;20273;-68
2020/12/28 11:56:18;;;;;;;4.43;4.03;;;7.70;46.60;;;;;;5090869;28;20178;-67
2020/12/28 11:58:45;;;;;;;4.10;3.10;;;8.00;46.70;;;;;;5091183;28;20167;-67
2020/12/28 12:01:15;;;;;;;10.00;9.30;;;8.20;44.70;;;;;;5091073;28;20441;-67
2020/12/28 12:03:43;;;;;;;6.83;6.23;;;8.10;44.90;;;;;;5090566;28;20428;-65
2020/12/28 12:06:14;;;;;;;9.03;8.23;;;8.10;45.50;;;;;;5090925;28;20509;-67
2020/12/28 12:09:09;;;;;;;3.80;3.50;;;8.20;45.20;;;;;;5090786;28;20487;-67
2020/12/28 12:11:25;;;;;;;7.20;6.67;;;8.30;44.90;;;;;;5090397;28;20413;-67
2020/12/28 12:13:50;;;;;;;4.77;4.47;;;8.20;44.20;;;;;;5090753;28;20436;-67
2020/12/28 12:16:21;;;;;;;5.37;4.80;;;8.20;44.50;;;;;;5090736;28;20317;-67
2020/12/28 12:18:46;;;;;;;4.27;3.00;;;8.40;43.40;;;;;;5090346;28;20201;-67
2020/12/28 12:21:12;;;;;;;3.43;3.13;;;8.20;42.10;;;;;;5090669;28;20950;-67
2020/12/28 12:23:37;;;;;;;2.80;2.60;;;8.20;43.30;;;;;;5090970;28;20241;-67
2020/12/28 12:26:03;;;;;;;2.70;2.50;;;7.90;41.90;;;;;;5090718;28;20330;-67
2020/12/28 12:28:28;;;;;;;2.73;2.53;;;7.80;43.10;;;;;;5090810;28;20174;-67
2020/12/28 12:30:54;;;;;;;2.97;2.73;;;8.20;43.70;;;;;;5090901;28;20171;-67
2020/12/28 12:33:19;;;;;;;2.67;2.47;;;8.30;43.30;;;;;;5090626;28;20522;-67
2020/12/28 12:35:44;;;;;;;3.30;2.87;;;8.40;41.50;;;;;;5090834;28;20261;-67
2020/12/28 12:38:10;;;;;;;3.47;3.17;;;8.40;41.20;;;;;;5109750;28;20212;-67
2020/12/28 12:40:36;;;;;;;2.67;2.47;;;8.30;41.70;;;;;;5111101;28;20189;-67
2020/12/28 12:43:01;;;;;;;3.30;3.00;;;8.20;43.10;;;;;;5111011;28;20181;-67
2020/12/28 12:45:27;;;;;;;2.97;2.77;;;8.30;45.00;;;;;;5111002;28;20209;-67
2020/12/28 12:47:52;;;;;;;3.77;3.00;;;8.40;44.10;;;;;;5114847;28;20575;-67
2020/12/28 12:50:17;;;;;;;2.83;2.57;;;8.30;44.20;;;;;;5115161;28;20647;-67
2020/12/28 12:52:43;;;;;;;3.03;2.83;;;8.10;45.40;;;;;;5115210;28;20174;-67
2020/12/28 12:55:09;;;;;;;4.83;3.07;;;8.00;45.60;;;;;;5114949;28;20627;-67
2020/12/28 12:57:36;;;;;;;2.90;2.37;;;8.10;45.90;;;;;;5114853;28;20212;-66